AAY1036 KPIE-KOMA
Flight info
| Callsign | AAY1036 |
|---|---|
| Flight time | N/A |
| Altitude | 34000 |
| Route | ENDED2 LACEN PATOY Q116 VLKNN GETME J151 FAM LMN MARWI4 |
| Aircraft | A320/M-SDE3FGHIRWY/LB1 |
Departure
| Time | 2026-05-08 14:42 |
|---|---|
| Airport | St. Petersburg Clearwater International Airport (KPIE) |
Arrival
| Time | N/A |
|---|---|
| Airport | Eppley Airfield (KOMA) |
| Time | Latitude | Longitude | Altitude | Speed | Heading |
|---|---|---|---|---|---|
| 2026-05-08 14:16 | 27.90743 | -82.69295 | 25 ft | 0 kts | 178° |
| 2026-05-08 14:32 | 27.90759 | -82.69296 | 27 ft | 4 kts | 178° |
| 2026-05-08 14:32 | 27.90786 | -82.69297 | 26 ft | 4 kts | 178° |
| 2026-05-08 14:33 | 27.90809 | -82.69298 | 25 ft | 4 kts | 166° |
| 2026-05-08 14:33 | 27.90829 | -82.69310 | 24 ft | 4 kts | 115° |
| 2026-05-08 14:33 | 27.90832 | -82.69339 | 28 ft | 4 kts | 82° |
| 2026-05-08 14:33 | 27.90830 | -82.69359 | 28 ft | 0 kts | 88° |
| 2026-05-08 14:35 | 27.90830 | -82.69357 | 28 ft | 2 kts | 88° |
| 2026-05-08 14:35 | 27.90832 | -82.69287 | 24 ft | 15 kts | 88° |
| 2026-05-08 14:36 | 27.90835 | -82.69158 | 24 ft | 16 kts | 88° |
| 2026-05-08 14:36 | 27.90838 | -82.69044 | 24 ft | 13 kts | 88° |
| 2026-05-08 14:36 | 27.90865 | -82.68971 | 24 ft | 9 kts | 18° |
| 2026-05-08 14:36 | 27.90923 | -82.68981 | 24 ft | 11 kts | 351° |
| 2026-05-08 14:37 | 27.91005 | -82.68996 | 24 ft | 13 kts | 351° |
| 2026-05-08 14:37 | 27.91098 | -82.69012 | 24 ft | 14 kts | 351° |
| 2026-05-08 14:37 | 27.91198 | -82.69029 | 24 ft | 15 kts | 351° |
| 2026-05-08 14:37 | 27.91303 | -82.69048 | 24 ft | 16 kts | 351° |
| 2026-05-08 14:38 | 27.91417 | -82.69068 | 24 ft | 17 kts | 351° |
| 2026-05-08 14:38 | 27.91538 | -82.69089 | 23 ft | 18 kts | 351° |
| 2026-05-08 14:38 | 27.91666 | -82.69111 | 24 ft | 19 kts | 351° |
| 2026-05-08 14:38 | 27.91797 | -82.69134 | 24 ft | 20 kts | 351° |
| 2026-05-08 14:39 | 27.91936 | -82.69159 | 24 ft | 21 kts | 351° |
| 2026-05-08 14:39 | 27.92073 | -82.69183 | 24 ft | 20 kts | 351° |
| 2026-05-08 14:39 | 27.92166 | -82.69198 | 23 ft | 20 kts | 352° |
| 2026-05-08 14:39 | 27.92283 | -82.69209 | 23 ft | 9 kts | 18° |
| 2026-05-08 14:40 | 27.92317 | -82.69170 | 23 ft | 0 kts | 59° |
| 2026-05-08 14:40 | 27.92320 | -82.69162 | 23 ft | 7 kts | 64° |
| 2026-05-08 14:40 | 27.92329 | -82.69072 | 22 ft | 5 kts | 116° |
| 2026-05-08 14:40 | 27.92303 | -82.69062 | 22 ft | 4 kts | 172° |
| 2026-05-08 14:41 | 27.92208 | -82.69047 | 23 ft | 43 kts | 172° |
| 2026-05-08 14:41 | 27.91665 | -82.68952 | 22 ft | 111 kts | 171° |
| 2026-05-08 14:41 | 27.90706 | -82.68785 | 28 ft | 165 kts | 171° |
| 2026-05-08 14:41 | 27.89478 | -82.68582 | 364 ft | 182 kts | 172° |
| 2026-05-08 14:42 | 27.88220 | -82.68346 | 1004 ft | 185 kts | 169° |
| 2026-05-08 14:42 | 27.86935 | -82.68059 | 1611 ft | 191 kts | 173° |
| 2026-05-08 14:42 | 27.85588 | -82.67843 | 2031 ft | 203 kts | 174° |
| 2026-05-08 14:42 | 27.84108 | -82.67947 | 2239 ft | 226 kts | 193° |
| 2026-05-08 14:43 | 27.82503 | -82.68394 | 2508 ft | 249 kts | 198° |
| 2026-05-08 14:43 | 27.80934 | -82.69350 | 2941 ft | 264 kts | 224° |
| 2026-05-08 14:43 | 27.79905 | -82.71057 | 3659 ft | 267 kts | 252° |
| 2026-05-08 14:43 | 27.79726 | -82.73077 | 4430 ft | 267 kts | 280° |
| 2026-05-08 14:44 | 27.80460 | -82.74992 | 5195 ft | 270 kts | 309° |
| 2026-05-08 14:44 | 27.81960 | -82.76272 | 5902 ft | 276 kts | 338° |
| 2026-05-08 14:44 | 27.83867 | -82.76624 | 6587 ft | 282 kts | 356° |
| 2026-05-08 14:44 | 27.85840 | -82.76688 | 7254 ft | 286 kts | 357° |
| 2026-05-08 14:45 | 27.87841 | -82.76740 | 7934 ft | 289 kts | 357° |
| 2026-05-08 14:45 | 27.89862 | -82.76792 | 8606 ft | 293 kts | 357° |
| 2026-05-08 14:45 | 27.91910 | -82.76845 | 9282 ft | 296 kts | 356° |
| 2026-05-08 14:45 | 27.93983 | -82.76902 | 9935 ft | 300 kts | 356° |
| 2026-05-08 14:46 | 27.96112 | -82.76968 | 10278 ft | 315 kts | 356° |
| 2026-05-08 14:46 | 27.98354 | -82.77044 | 10404 ft | 337 kts | 356° |
| 2026-05-08 14:46 | 28.00763 | -82.77127 | 10567 ft | 355 kts | 356° |
| 2026-05-08 14:46 | 28.03269 | -82.77210 | 11028 ft | 362 kts | 356° |
| 2026-05-08 14:47 | 28.05797 | -82.77292 | 11591 ft | 365 kts | 355° |
| 2026-05-08 14:47 | 28.08344 | -82.77374 | 12183 ft | 368 kts | 355° |
| 2026-05-08 14:47 | 28.10910 | -82.77458 | 12770 ft | 370 kts | 355° |
| 2026-05-08 14:47 | 28.13494 | -82.77544 | 13321 ft | 373 kts | 354° |
| 2026-05-08 14:48 | 28.16096 | -82.77630 | 13898 ft | 375 kts | 354° |
| 2026-05-08 14:48 | 28.18712 | -82.77714 | 14420 ft | 378 kts | 354° |
| 2026-05-08 14:48 | 28.21348 | -82.77798 | 14949 ft | 379 kts | 354° |
| 2026-05-08 14:48 | 28.23993 | -82.77887 | 15463 ft | 382 kts | 353° |
| 2026-05-08 14:49 | 28.26660 | -82.77978 | 15965 ft | 384 kts | 353° |
| 2026-05-08 14:49 | 28.29343 | -82.78070 | 16469 ft | 387 kts | 353° |
| 2026-05-08 14:49 | 28.32042 | -82.78161 | 16971 ft | 390 kts | 353° |
| 2026-05-08 14:49 | 28.34761 | -82.78249 | 17469 ft | 393 kts | 353° |
| 2026-05-08 14:50 | 28.37509 | -82.78337 | 17967 ft | 396 kts | 353° |
| 2026-05-08 14:50 | 28.40269 | -82.78424 | 18445 ft | 398 kts | 352° |
| 2026-05-08 14:50 | 28.43013 | -82.78767 | 18881 ft | 397 kts | 346° |
| 2026-05-08 14:50 | 28.45750 | -82.79216 | 19337 ft | 399 kts | 346° |
| 2026-05-08 14:51 | 28.48500 | -82.79667 | 19819 ft | 401 kts | 346° |
| 2026-05-08 14:51 | 28.51269 | -82.80122 | 20283 ft | 403 kts | 346° |
| 2026-05-08 14:51 | 28.54017 | -82.80571 | 20727 ft | 405 kts | 346° |
| 2026-05-08 14:51 | 28.56812 | -82.81027 | 21169 ft | 407 kts | 346° |
| 2026-05-08 14:52 | 28.59621 | -82.81497 | 21590 ft | 409 kts | 345° |
| 2026-05-08 14:52 | 28.65273 | -82.82517 | 22428 ft | 413 kts | 344° |
| 2026-05-08 14:52 | 28.68114 | -82.83043 | 22833 ft | 415 kts | 344° |
| 2026-05-08 14:53 | 28.70976 | -82.83571 | 23225 ft | 417 kts | 344° |
| 2026-05-08 14:53 | 28.73854 | -82.84097 | 23607 ft | 419 kts | 344° |
| 2026-05-08 14:53 | 28.76745 | -82.84620 | 23920 ft | 421 kts | 344° |
| 2026-05-08 14:53 | 28.79650 | -82.85145 | 24255 ft | 423 kts | 344° |
| 2026-05-08 14:54 | 28.82558 | -82.85667 | 24564 ft | 425 kts | 344° |
| 2026-05-08 14:54 | 28.85485 | -82.86192 | 24873 ft | 426 kts | 344° |
| 2026-05-08 14:54 | 28.88418 | -82.86721 | 25153 ft | 428 kts | 344° |
| 2026-05-08 14:54 | 28.91366 | -82.87255 | 25444 ft | 430 kts | 344° |
| 2026-05-08 14:55 | 28.94291 | -82.87787 | 25721 ft | 432 kts | 344° |
| 2026-05-08 14:55 | 28.97262 | -82.88330 | 26006 ft | 433 kts | 344° |
| 2026-05-08 14:55 | 29.00248 | -82.88875 | 26279 ft | 435 kts | 344° |
| 2026-05-08 14:55 | 29.03242 | -82.89446 | 26551 ft | 435 kts | 341° |
| 2026-05-08 14:56 | 29.06110 | -82.90427 | 26810 ft | 427 kts | 331° |
| 2026-05-08 14:56 | 29.08749 | -82.91926 | 27096 ft | 421 kts | 322° |
| 2026-05-08 14:56 | 29.11145 | -82.93821 | 27362 ft | 418 kts | 318° |
| 2026-05-08 14:56 | 29.13514 | -82.95766 | 27621 ft | 420 kts | 318° |
| 2026-05-08 14:57 | 29.15897 | -82.97715 | 27875 ft | 422 kts | 318° |
| 2026-05-08 14:57 | 29.18293 | -82.99668 | 28125 ft | 423 kts | 318° |
| 2026-05-08 14:57 | 29.20697 | -83.01628 | 28366 ft | 425 kts | 318° |
| 2026-05-08 14:57 | 29.23109 | -83.03599 | 28595 ft | 427 kts | 318° |
| 2026-05-08 14:58 | 29.25526 | -83.05579 | 28818 ft | 428 kts | 318° |
| 2026-05-08 14:58 | 29.27953 | -83.07570 | 29037 ft | 430 kts | 318° |
| 2026-05-08 14:58 | 29.30387 | -83.09566 | 29250 ft | 431 kts | 318° |
| 2026-05-08 14:58 | 29.32828 | -83.11567 | 29453 ft | 432 kts | 318° |
| 2026-05-08 14:59 | 29.35284 | -83.13582 | 29671 ft | 433 kts | 318° |
| 2026-05-08 14:59 | 29.40182 | -83.17599 | 30223 ft | 433 kts | 317° |
| 2026-05-08 14:59 | 29.42631 | -83.19610 | 30435 ft | 433 kts | 317° |
| 2026-05-08 15:00 | 29.45046 | -83.21595 | 30671 ft | 433 kts | 317° |
| 2026-05-08 15:00 | 29.47495 | -83.23613 | 30922 ft | 432 kts | 317° |
| 2026-05-08 15:00 | 29.49934 | -83.25619 | 31173 ft | 431 kts | 317° |
| 2026-05-08 15:00 | 29.52376 | -83.27630 | 31419 ft | 431 kts | 317° |
| 2026-05-08 15:01 | 29.54803 | -83.29633 | 31682 ft | 430 kts | 317° |
| 2026-05-08 15:01 | 29.57229 | -83.31636 | 31933 ft | 429 kts | 317° |
| 2026-05-08 15:01 | 29.59650 | -83.33634 | 32186 ft | 428 kts | 317° |
| 2026-05-08 15:01 | 29.62068 | -83.35628 | 32440 ft | 427 kts | 317° |
| 2026-05-08 15:02 | 29.64480 | -83.37618 | 32705 ft | 426 kts | 316° |
| 2026-05-08 15:02 | 29.66883 | -83.39605 | 32984 ft | 425 kts | 316° |
| 2026-05-08 15:02 | 29.69277 | -83.41588 | 33312 ft | 422 kts | 316° |
| 2026-05-08 15:02 | 29.71654 | -83.43556 | 33616 ft | 420 kts | 316° |
| 2026-05-08 15:03 | 29.74020 | -83.45516 | 33884 ft | 418 kts | 315° |
| 2026-05-08 15:03 | 29.76381 | -83.47476 | 34027 ft | 418 kts | 315° |
| 2026-05-08 15:03 | 29.81089 | -83.51389 | 34062 ft | 417 kts | 315° |
| 2026-05-08 15:04 | 29.85788 | -83.55292 | 34070 ft | 417 kts | 315° |
| 2026-05-08 15:04 | 29.90500 | -83.59208 | 34079 ft | 417 kts | 315° |
| 2026-05-08 15:05 | 29.95202 | -83.63115 | 34086 ft | 417 kts | 315° |
| 2026-05-08 15:05 | 29.99901 | -83.67025 | 34118 ft | 416 kts | 315° |
| 2026-05-08 15:06 | 30.04579 | -83.70925 | 34116 ft | 414 kts | 315° |
| 2026-05-08 15:06 | 30.09220 | -83.74803 | 34106 ft | 413 kts | 315° |
| 2026-05-08 15:07 | 30.13880 | -83.78702 | 34094 ft | 413 kts | 314° |
| 2026-05-08 15:07 | 30.18523 | -83.82598 | 34082 ft | 412 kts | 314° |
| 2026-05-08 15:08 | 30.22381 | -83.85834 | 34076 ft | 412 kts | 314° |
| 2026-05-08 15:08 | 30.27416 | -83.90055 | 34091 ft | 412 kts | 314° |
| 2026-05-08 15:09 | 30.32047 | -83.93945 | 34097 ft | 411 kts | 314° |
| 2026-05-08 15:09 | 30.36666 | -83.97838 | 34090 ft | 410 kts | 314° |
| 2026-05-08 15:10 | 30.41273 | -84.01728 | 34088 ft | 409 kts | 314° |
| 2026-05-08 15:10 | 30.45877 | -84.05606 | 34082 ft | 409 kts | 314° |
| 2026-05-08 15:11 | 30.50478 | -84.09489 | 34084 ft | 409 kts | 314° |
| 2026-05-08 15:11 | 30.55071 | -84.13377 | 34079 ft | 409 kts | 314° |
| 2026-05-08 15:12 | 30.59663 | -84.17276 | 34077 ft | 409 kts | 314° |
| 2026-05-08 15:12 | 30.64258 | -84.21169 | 34078 ft | 409 kts | 314° |
| 2026-05-08 15:13 | 30.68856 | -84.25064 | 34082 ft | 409 kts | 314° |
| 2026-05-08 15:13 | 30.73450 | -84.28975 | 34090 ft | 409 kts | 314° |
| 2026-05-08 15:14 | 30.78044 | -84.32890 | 34085 ft | 410 kts | 314° |
| 2026-05-08 15:14 | 30.82651 | -84.36811 | 34083 ft | 410 kts | 314° |
| 2026-05-08 15:15 | 30.87256 | -84.40737 | 34108 ft | 411 kts | 314° |
| 2026-05-08 15:15 | 30.91847 | -84.44654 | 34101 ft | 412 kts | 314° |
| 2026-05-08 15:16 | 30.96428 | -84.48567 | 34100 ft | 412 kts | 314° |
| 2026-05-08 15:16 | 31.01019 | -84.52498 | 34100 ft | 412 kts | 314° |
| 2026-05-08 15:17 | 31.05640 | -84.56460 | 34100 ft | 412 kts | 314° |
| 2026-05-08 15:17 | 31.10260 | -84.60424 | 34100 ft | 412 kts | 314° |
| 2026-05-08 15:18 | 31.14875 | -84.64391 | 34135 ft | 412 kts | 314° |
| 2026-05-08 15:18 | 31.19489 | -84.68367 | 34139 ft | 412 kts | 314° |
| 2026-05-08 15:19 | 31.24106 | -84.72346 | 34131 ft | 412 kts | 314° |
| 2026-05-08 15:19 | 31.28728 | -84.76330 | 34120 ft | 412 kts | 314° |
| 2026-05-08 15:20 | 31.33339 | -84.80312 | 34122 ft | 413 kts | 314° |